createdAt,value
2023-05-21T00:02:05.729Z,7.20
2023-05-21T00:04:33.896Z,7.04
2023-05-21T00:07:00.975Z,6.77
2023-05-21T00:09:28.202Z,6.69
2023-05-21T00:11:55.000Z,5.71
2023-05-21T00:14:21.768Z,5.87
2023-05-21T00:16:48.599Z,6.38
2023-05-21T00:19:15.545Z,5.94
2023-05-21T00:21:45.948Z,5.59
2023-05-21T00:24:12.953Z,6.50
2023-05-21T00:26:39.776Z,6.09
2023-05-21T00:29:06.664Z,5.66
2023-05-21T00:31:33.815Z,5.80
2023-05-21T00:34:00.894Z,6.40
2023-05-21T00:36:28.293Z,5.35
2023-05-21T00:38:55.071Z,6.79
2023-05-21T00:41:23.181Z,6.18
2023-05-21T00:43:50.290Z,5.76
2023-05-21T00:46:22.010Z,6.06
2023-05-21T00:48:50.780Z,5.78
2023-05-21T00:51:18.772Z,6.17
2023-05-21T00:53:47.076Z,6.89
2023-05-21T00:56:13.927Z,5.98
2023-05-21T00:58:41.548Z,6.27
2023-05-21T01:01:13.725Z,6.56
2023-05-21T01:03:41.153Z,6.40
2023-05-21T01:06:09.863Z,6.38
2023-05-21T01:08:38.274Z,5.80
2023-05-21T01:11:06.703Z,6.62
2023-05-21T01:13:37.060Z,6.40
2023-05-21T01:16:06.754Z,6.80
2023-05-21T01:18:38.409Z,6.05
2023-05-21T01:21:07.493Z,6.01
2023-05-21T01:23:34.778Z,5.40
2023-05-21T01:26:01.582Z,5.27
2023-05-21T01:28:29.877Z,5.51
2023-05-21T01:31:02.639Z,5.46
2023-05-21T01:33:45.568Z,5.17
2023-05-21T01:36:26.894Z,5.15
2023-05-21T01:39:09.405Z,5.76
2023-05-21T01:41:41.010Z,5.75
2023-05-21T01:44:10.068Z,5.03
2023-05-21T01:46:38.461Z,5.78
2023-05-21T01:49:06.684Z,5.91
2023-05-21T01:51:35.497Z,6.12
2023-05-21T01:54:03.237Z,6.18
2023-05-21T01:56:30.097Z,5.26
2023-05-21T01:58:59.516Z,5.64
2023-05-21T02:01:30.189Z,6.64
2023-05-21T02:03:58.075Z,6.26
2023-05-21T02:06:25.483Z,6.46
2023-05-21T02:08:52.405Z,6.07
2023-05-21T02:11:19.504Z,6.02
2023-05-21T02:13:46.384Z,5.98
2023-05-21T02:16:14.899Z,6.92
2023-05-21T02:18:45.351Z,6.46
2023-05-21T02:21:12.283Z,6.16
2023-05-21T02:23:39.069Z,5.62
2023-05-21T02:26:05.964Z,6.63
2023-05-21T02:28:33.121Z,5.26
2023-05-21T02:31:00.181Z,5.49
2023-05-21T02:33:27.078Z,5.61
2023-05-21T02:35:54.083Z,4.56
2023-05-21T02:38:23.124Z,5.74
2023-05-21T02:40:53.561Z,5.64
2023-05-21T02:43:20.597Z,5.49
2023-05-21T02:45:48.183Z,4.26
2023-05-21T02:48:15.247Z,4.04
2023-05-21T02:50:42.450Z,3.89
2023-05-21T02:53:09.405Z,4.30
2023-05-21T02:55:36.728Z,4.57
2023-05-21T02:58:03.676Z,4.69
2023-05-21T03:00:30.894Z,4.47
2023-05-21T03:02:57.871Z,5.15
2023-05-21T03:05:24.717Z,5.07
2023-05-21T03:07:51.585Z,4.82
2023-05-21T03:10:18.541Z,5.15
2023-05-21T03:12:45.676Z,4.32
2023-05-21T03:15:14.951Z,4.47
2023-05-21T03:17:42.414Z,5.34
2023-05-21T03:20:16.055Z,4.94
2023-05-21T03:22:44.575Z,5.06
2023-05-21T03:25:12.873Z,4.23
2023-05-21T03:27:40.077Z,5.16
2023-05-21T03:30:16.821Z,5.14
2023-05-21T03:33:00.236Z,4.37
2023-05-21T03:35:27.522Z,5.49
2023-05-21T03:37:54.499Z,5.44
2023-05-21T03:40:21.943Z,6.32
2023-05-21T03:42:49.152Z,5.85
2023-05-21T03:45:16.056Z,6.56
2023-05-21T03:48:21.073Z,4.43
2023-05-21T03:50:47.866Z,5.02
2023-05-21T03:53:15.639Z,4.76
2023-05-21T03:55:42.598Z,4.71
2023-05-21T03:58:10.833Z,5.35
2023-05-21T04:00:38.116Z,4.74
2023-05-21T04:03:07.211Z,5.04
2023-05-21T04:05:34.543Z,4.60
2023-05-21T04:08:01.771Z,4.46
2023-05-21T04:10:28.868Z,5.72
2023-05-21T04:12:55.677Z,5.15
2023-05-21T04:15:22.460Z,6.00
2023-05-21T04:17:50.387Z,5.53
2023-05-21T04:20:17.905Z,5.58
2023-05-21T04:22:44.932Z,6.13
2023-05-21T04:25:12.190Z,6.29
2023-05-21T04:27:39.387Z,6.48
2023-05-21T04:30:08.519Z,7.00
2023-05-21T04:32:36.773Z,6.09
2023-05-21T04:35:04.336Z,6.76
2023-05-21T04:37:35.357Z,6.04
2023-05-21T04:40:04.324Z,6.26
2023-05-21T04:42:33.019Z,6.89
2023-05-21T04:45:00.056Z,6.30
2023-05-21T04:47:35.626Z,6.89
2023-05-21T04:50:04.525Z,7.33
2023-05-21T04:52:31.752Z,7.34
2023-05-21T04:54:59.095Z,7.90
2023-05-21T04:57:26.071Z,7.62
2023-05-21T04:59:52.831Z,8.13
2023-05-21T05:02:19.723Z,8.48
2023-05-21T05:04:46.582Z,8.02
2023-05-21T05:07:13.770Z,7.60
2023-05-21T05:09:40.722Z,7.40
2023-05-21T05:12:08.406Z,7.81
2023-05-21T05:14:35.439Z,7.92
2023-05-21T05:17:02.258Z,6.47
2023-05-21T05:19:29.490Z,8.56
2023-05-21T05:21:56.920Z,6.35
2023-05-21T05:24:23.932Z,8.13
2023-05-21T05:26:51.540Z,8.19
2023-05-21T05:29:18.443Z,8.01
2023-05-21T05:31:45.344Z,8.02
2023-05-21T05:34:12.735Z,7.41
2023-05-21T05:36:39.565Z,7.82
2023-05-21T05:39:06.385Z,9.37
2023-05-21T05:41:33.240Z,8.50
2023-05-21T05:43:59.976Z,7.79
2023-05-21T05:48:57.195Z,9.36
2023-05-21T05:51:24.193Z,8.87
2023-05-21T05:53:51.389Z,10.52
2023-05-21T05:56:18.216Z,10.74
2023-05-21T05:58:45.005Z,10.46
2023-05-21T06:01:14.178Z,9.75
2023-05-21T06:03:41.410Z,9.77
2023-05-21T06:06:14.520Z,8.37
2023-05-21T06:08:41.479Z,9.59
2023-05-21T06:11:08.499Z,8.28
2023-05-21T06:13:35.744Z,8.57
2023-05-21T06:16:04.273Z,8.03
2023-05-21T06:18:31.115Z,9.43
2023-05-21T06:20:57.869Z,8.50
2023-05-21T06:23:25.091Z,8.72
2023-05-21T06:25:52.278Z,7.95
2023-05-21T06:28:20.181Z,8.66
2023-05-21T06:30:48.505Z,9.71
2023-05-21T06:33:16.278Z,8.72
2023-05-21T06:35:43.966Z,10.20
2023-05-21T06:38:11.525Z,9.73
2023-05-21T06:40:38.432Z,10.10
2023-05-21T06:43:05.819Z,9.80
2023-05-21T06:45:51.605Z,9.65
2023-05-21T06:48:27.874Z,9.75
2023-05-21T06:50:54.901Z,8.97
2023-05-21T06:53:22.028Z,9.38
2023-05-21T06:55:53.865Z,9.80
2023-05-21T06:58:39.140Z,9.44
2023-05-21T07:01:06.104Z,10.02
2023-05-21T07:03:33.011Z,10.40
2023-05-21T07:05:59.894Z,9.04
2023-05-21T07:08:27.313Z,10.50
2023-05-21T07:10:56.391Z,9.25
2023-05-21T07:13:23.298Z,9.17
2023-05-21T07:15:50.219Z,9.44
2023-05-21T07:18:18.964Z,9.43
2023-05-21T07:20:45.761Z,10.64
2023-05-21T07:23:15.162Z,9.89
2023-05-21T07:25:41.926Z,10.29
2023-05-21T07:28:08.814Z,10.68
2023-05-21T07:30:36.401Z,11.88
2023-05-21T07:33:06.750Z,11.30
2023-05-21T07:35:33.676Z,12.20
2023-05-21T07:38:00.683Z,11.05
2023-05-21T07:40:27.591Z,12.62
2023-05-21T07:42:54.843Z,12.65
2023-05-21T07:45:23.475Z,13.25
2023-05-21T07:47:50.970Z,12.77
2023-05-21T07:50:17.858Z,14.20
2023-05-21T07:52:44.656Z,14.83
2023-05-21T07:55:11.561Z,13.94
2023-05-21T07:57:40.433Z,14.76
2023-05-21T08:00:14.286Z,15.53
2023-05-21T08:02:52.441Z,15.01
2023-05-21T08:05:21.260Z,15.18
2023-05-21T08:07:48.484Z,15.81
2023-05-21T08:10:17.158Z,15.90
2023-05-21T08:12:46.480Z,15.75
2023-05-21T08:15:13.331Z,15.14
2023-05-21T08:17:44.244Z,15.63
2023-05-21T08:20:11.849Z,15.04
2023-05-21T08:22:38.900Z,15.96
2023-05-21T08:25:08.579Z,16.58
2023-05-21T08:27:35.371Z,16.08
2023-05-21T08:30:03.235Z,16.85
2023-05-21T08:32:30.101Z,15.79
2023-05-21T08:34:57.802Z,15.92
2023-05-21T08:38:03.216Z,16.72
2023-05-21T08:40:41.537Z,15.63
2023-05-21T08:43:13.797Z,14.74
2023-05-21T08:45:54.691Z,16.26
2023-05-21T08:48:24.722Z,14.66
2023-05-21T08:50:53.316Z,16.45
2023-05-21T08:53:29.094Z,16.15
2023-05-21T08:55:57.571Z,16.93
2023-05-21T08:58:33.784Z,17.65
2023-05-21T09:01:00.901Z,17.19
2023-05-21T09:03:29.423Z,18.01
2023-05-21T09:05:57.457Z,18.42
2023-05-21T09:08:31.447Z,17.08
2023-05-21T09:11:03.363Z,18.79
2023-05-21T09:13:45.077Z,19.62
2023-05-21T09:16:22.956Z,16.61
2023-05-21T09:18:50.070Z,17.08
2023-05-21T09:21:24.549Z,17.53
2023-05-21T09:23:57.089Z,17.60
2023-05-21T09:26:25.101Z,18.30
2023-05-21T09:29:00.225Z,19.82
2023-05-21T09:31:27.573Z,19.34
2023-05-21T09:33:56.098Z,19.44
2023-05-21T09:36:25.100Z,19.05
2023-05-21T09:38:52.405Z,19.70
2023-05-21T09:41:22.261Z,18.16
2023-05-21T09:43:49.602Z,18.70
2023-05-21T09:46:21.139Z,19.66
2023-05-21T09:48:48.064Z,17.96
2023-05-21T09:51:19.652Z,20.42
2023-05-21T09:53:59.593Z,20.86
2023-05-21T09:56:30.794Z,20.65
2023-05-21T09:59:04.350Z,20.95
2023-05-21T10:01:33.985Z,19.45
2023-05-21T10:04:02.785Z,19.49
2023-05-21T10:06:32.240Z,20.02
2023-05-21T10:09:06.214Z,20.22
2023-05-21T10:11:34.737Z,22.91
2023-05-21T10:14:07.588Z,22.13
2023-05-21T10:16:36.452Z,22.52
2023-05-21T10:19:04.848Z,23.67
2023-05-21T10:21:33.515Z,22.42
2023-05-21T10:24:02.543Z,23.12
2023-05-21T10:26:30.963Z,20.54
2023-05-21T10:29:01.113Z,19.38
2023-05-21T10:31:28.608Z,20.37
2023-05-21T10:33:56.192Z,20.05
2023-05-21T10:36:24.515Z,20.79
2023-05-21T10:38:51.997Z,20.65
2023-05-21T10:41:21.930Z,19.99
2023-05-21T10:44:17.703Z,21.57
2023-05-21T10:47:16.893Z,22.56
2023-05-21T10:49:59.106Z,22.38
2023-05-21T10:52:58.298Z,20.37
2023-05-21T10:55:33.938Z,22.16
2023-05-21T10:58:16.501Z,21.66
2023-05-21T11:00:43.997Z,23.08
2023-05-21T11:03:14.012Z,24.31
2023-05-21T11:06:02.663Z,23.94
2023-05-21T11:08:36.332Z,25.82
2023-05-21T11:11:04.234Z,24.23
2023-05-21T11:13:50.630Z,23.24
2023-05-21T11:16:18.185Z,26.15
2023-05-21T11:18:44.907Z,25.76
2023-05-21T11:21:21.104Z,22.87
2023-05-21T11:23:51.445Z,27.10
2023-05-21T11:26:24.443Z,27.01
2023-05-21T11:29:11.781Z,25.12
2023-05-21T11:31:39.174Z,25.51
2023-05-21T11:34:13.735Z,25.82
2023-05-21T11:36:44.918Z,24.95
2023-05-21T11:39:21.890Z,25.02
2023-05-21T11:42:01.013Z,27.11
2023-05-21T11:44:43.153Z,26.17
2023-05-21T11:47:12.404Z,26.79
2023-05-21T11:49:39.630Z,26.94
2023-05-21T11:52:08.440Z,27.37
2023-05-21T11:54:46.539Z,24.82
2023-05-21T11:57:17.790Z,25.88
2023-05-21T11:59:48.987Z,26.23
2023-05-21T12:02:20.567Z,24.04
2023-05-21T12:04:49.042Z,23.03
2023-05-21T12:07:17.667Z,23.26
2023-05-21T12:09:45.520Z,23.82
2023-05-21T12:12:14.764Z,23.38
2023-05-21T12:14:46.375Z,23.44
2023-05-21T12:17:16.612Z,23.95
2023-05-21T12:19:43.857Z,24.18
2023-05-21T12:22:10.904Z,23.08
2023-05-21T12:24:38.997Z,24.25
2023-05-21T12:27:10.389Z,22.01
2023-05-21T12:29:38.753Z,23.72
2023-05-21T12:32:07.533Z,22.43
2023-05-21T12:34:54.937Z,22.40
2023-05-21T12:37:26.435Z,22.13
2023-05-21T12:39:55.791Z,24.50
2023-05-21T12:42:30.947Z,23.09
2023-05-21T12:44:58.516Z,23.29
2023-05-21T12:47:26.957Z,23.09
2023-05-21T12:49:58.041Z,23.31
2023-05-21T12:52:25.857Z,24.02
2023-05-21T12:54:54.292Z,24.64
2023-05-21T12:57:23.923Z,22.91
2023-05-21T12:59:53.389Z,23.45
2023-05-21T13:02:28.419Z,21.82
2023-05-21T13:05:06.942Z,21.76
2023-05-21T13:07:36.191Z,22.29
2023-05-21T13:10:04.405Z,22.20
2023-05-21T13:12:32.632Z,23.07
2023-05-21T13:15:02.082Z,22.73
2023-05-21T13:17:29.288Z,21.88
2023-05-21T13:20:16.772Z,21.04
2023-05-21T13:22:47.417Z,21.22
2023-05-21T13:25:18.348Z,24.07
2023-05-21T13:27:45.646Z,22.78
2023-05-21T13:30:12.857Z,21.66
2023-05-21T13:32:41.135Z,23.28
2023-05-21T13:35:09.401Z,21.58
2023-05-21T13:37:36.590Z,20.93
2023-05-21T13:40:11.471Z,21.30
2023-05-21T13:42:38.936Z,21.26
2023-05-21T13:45:10.885Z,20.73
2023-05-21T13:47:40.172Z,20.76
2023-05-21T13:50:08.562Z,21.73
2023-05-21T13:52:35.864Z,23.12
2023-05-21T13:55:02.940Z,23.01
2023-05-21T13:57:31.147Z,24.83
2023-05-21T13:59:59.158Z,23.73
2023-05-21T14:02:26.399Z,23.21
2023-05-21T14:04:53.957Z,24.06
2023-05-21T14:07:22.190Z,22.00
2023-05-21T14:09:49.366Z,21.68
2023-05-21T14:12:17.011Z,21.52
2023-05-21T14:14:44.131Z,22.62
2023-05-21T14:17:11.246Z,23.11
2023-05-21T14:19:38.061Z,22.89
2023-05-21T14:22:05.008Z,23.94
2023-05-21T14:24:31.775Z,21.08
2023-05-21T14:26:58.587Z,23.13
2023-05-21T14:29:25.324Z,24.49
2023-05-21T14:31:52.134Z,20.07
2023-05-21T14:34:19.039Z,23.26
2023-05-21T14:36:46.020Z,22.91
2023-05-21T14:39:13.018Z,21.72
2023-05-21T14:41:40.146Z,21.20
2023-05-21T14:44:06.960Z,22.23
2023-05-21T14:46:33.974Z,21.29
2023-05-21T14:49:00.999Z,22.15
2023-05-21T14:51:27.991Z,22.10
2023-05-21T14:53:57.182Z,22.62
2023-05-21T14:56:27.341Z,21.63
2023-05-21T14:58:54.552Z,21.01
2023-05-21T15:01:21.917Z,21.44
2023-05-21T15:03:49.245Z,19.87
2023-05-21T15:06:16.212Z,20.94
2023-05-21T15:08:42.934Z,20.39
2023-05-21T15:11:10.433Z,21.17
2023-05-21T15:13:37.931Z,21.69
2023-05-21T15:16:04.911Z,21.14
2023-05-21T15:18:31.701Z,20.57
2023-05-21T15:20:59.414Z,21.47
2023-05-21T15:23:26.563Z,20.47
2023-05-21T15:25:53.354Z,21.64
2023-05-21T15:28:20.111Z,19.91
2023-05-21T15:30:46.872Z,20.79
2023-05-21T15:33:13.742Z,21.00
2023-05-21T15:35:41.212Z,20.64
2023-05-21T15:38:08.390Z,21.85
2023-05-21T15:40:35.173Z,20.46
2023-05-21T15:43:01.937Z,20.59
2023-05-21T15:45:28.743Z,20.26
2023-05-21T15:47:55.714Z,20.41
2023-05-21T15:50:22.501Z,19.85
2023-05-21T15:52:51.017Z,20.41
2023-05-21T15:55:20.076Z,20.58
2023-05-21T15:57:46.867Z,20.47
2023-05-21T16:00:13.961Z,21.39
2023-05-21T16:02:41.975Z,21.28
2023-05-21T16:05:09.342Z,20.91
2023-05-21T16:07:38.338Z,20.10
2023-05-21T16:10:06.634Z,19.92
2023-05-21T16:12:33.403Z,21.27
2023-05-21T16:15:00.368Z,20.89
2023-05-21T16:17:27.293Z,20.42
2023-05-21T16:19:54.148Z,20.28
2023-05-21T16:22:20.935Z,20.92
2023-05-21T16:24:48.275Z,20.55
2023-05-21T16:27:15.362Z,21.33
2023-05-21T16:29:42.710Z,20.49
2023-05-21T16:32:10.945Z,20.67
2023-05-21T16:34:37.778Z,20.85
2023-05-21T16:37:04.772Z,21.57
2023-05-21T16:39:31.619Z,19.93
2023-05-21T16:41:59.835Z,18.66
2023-05-21T16:44:27.525Z,18.63
2023-05-21T16:46:54.415Z,18.42
2023-05-21T16:49:21.208Z,18.70
2023-05-21T16:51:47.952Z,18.53
2023-05-21T16:54:14.685Z,19.07
2023-05-21T16:56:41.472Z,18.78
2023-05-21T16:59:08.223Z,19.05
2023-05-21T17:01:35.044Z,18.23
2023-05-21T17:04:02.079Z,18.79
2023-05-21T17:06:28.890Z,17.84
2023-05-21T17:08:55.772Z,19.14
2023-05-21T17:11:22.911Z,19.22
2023-05-21T17:13:49.724Z,17.74
2023-05-21T17:16:16.518Z,18.20
2023-05-21T17:18:43.543Z,17.81
2023-05-21T17:21:10.599Z,18.41
2023-05-21T17:23:37.400Z,16.92
2023-05-21T17:26:06.965Z,18.53
2023-05-21T17:28:33.794Z,18.16
2023-05-21T17:31:01.835Z,17.98
2023-05-21T17:33:28.833Z,18.27
2023-05-21T17:35:57.107Z,17.92
2023-05-21T17:38:23.995Z,17.67
2023-05-21T17:40:50.888Z,18.41
2023-05-21T17:43:18.083Z,18.85
2023-05-21T17:45:44.981Z,18.00
2023-05-21T17:48:12.254Z,19.05
2023-05-21T17:50:39.141Z,17.37
2023-05-21T17:53:05.979Z,17.66
2023-05-21T17:55:32.757Z,17.69
2023-05-21T17:58:01.077Z,17.76
2023-05-21T18:00:28.124Z,16.84
2023-05-21T18:02:54.927Z,17.26
2023-05-21T18:05:22.847Z,17.12
2023-05-21T18:07:49.750Z,16.55
2023-05-21T18:10:16.600Z,17.41
2023-05-21T18:12:46.362Z,16.79
2023-05-21T18:15:14.692Z,16.03
2023-05-21T18:17:42.019Z,16.42
2023-05-21T18:20:09.497Z,16.35
2023-05-21T18:22:36.727Z,15.89
2023-05-21T18:25:04.504Z,16.83
2023-05-21T18:27:31.584Z,17.33
2023-05-21T18:30:02.330Z,15.69
2023-05-21T18:32:29.366Z,15.86
2023-05-21T18:34:56.703Z,16.31
2023-05-21T18:37:23.824Z,15.75
2023-05-21T18:39:51.022Z,16.37
2023-05-21T18:42:17.774Z,16.04
2023-05-21T18:44:46.538Z,16.79
2023-05-21T18:47:13.813Z,16.03
2023-05-21T18:49:40.530Z,16.05
2023-05-21T18:52:07.801Z,15.87
2023-05-21T18:54:34.567Z,15.49
2023-05-21T18:57:01.719Z,15.79
2023-05-21T18:59:29.266Z,15.53
2023-05-21T19:01:56.189Z,15.96
2023-05-21T19:04:23.084Z,15.61
2023-05-21T19:06:50.018Z,15.50
2023-05-21T19:09:17.174Z,14.97
2023-05-21T19:11:44.197Z,15.08
2023-05-21T19:14:11.171Z,15.06
2023-05-21T19:16:38.242Z,14.06
2023-05-21T19:19:06.083Z,15.39
2023-05-21T19:21:33.218Z,15.34
2023-05-21T19:24:00.114Z,15.17
2023-05-21T19:26:27.228Z,14.46
2023-05-21T19:28:54.617Z,14.44
2023-05-21T19:31:23.324Z,14.30
2023-05-21T19:33:50.650Z,13.70
2023-05-21T19:36:18.692Z,14.59
2023-05-21T19:38:49.270Z,13.88
2023-05-21T19:41:19.977Z,15.07
2023-05-21T19:43:47.133Z,15.07
2023-05-21T19:46:17.192Z,13.79
2023-05-21T19:48:45.080Z,14.23
2023-05-21T19:51:11.931Z,13.59
2023-05-21T19:53:38.860Z,14.46
2023-05-21T19:56:05.899Z,14.13
2023-05-21T19:58:33.183Z,13.75
2023-05-21T20:01:00.126Z,13.55
2023-05-21T20:03:29.136Z,13.38
2023-05-21T20:05:56.068Z,13.49
2023-05-21T20:08:23.028Z,13.10
2023-05-21T20:10:51.903Z,13.08
2023-05-21T20:13:19.585Z,13.90
2023-05-21T20:15:48.020Z,13.12
2023-05-21T20:18:15.477Z,13.71
2023-05-21T20:20:43.391Z,13.37
2023-05-21T20:23:10.250Z,13.58
2023-05-21T20:25:37.059Z,12.89
2023-05-21T20:28:05.314Z,13.23
2023-05-21T20:30:34.068Z,13.75
2023-05-21T20:33:02.555Z,13.56
2023-05-21T20:35:30.148Z,12.54
2023-05-21T20:37:57.011Z,12.71
2023-05-21T20:40:23.743Z,12.13
2023-05-21T20:42:52.040Z,12.40
2023-05-21T20:45:18.914Z,12.57
2023-05-21T20:47:47.834Z,12.11
2023-05-21T20:50:17.967Z,12.17
2023-05-21T20:52:46.998Z,12.62
2023-05-21T20:55:14.961Z,11.69
2023-05-21T20:57:42.214Z,11.50
2023-05-21T21:00:12.074Z,11.37
2023-05-21T21:02:39.173Z,11.60
2023-05-21T21:05:06.673Z,11.33
2023-05-21T21:07:34.299Z,11.28
2023-05-21T21:10:01.625Z,11.07
2023-05-21T21:12:28.923Z,11.06
2023-05-21T21:14:56.122Z,11.14
2023-05-21T21:17:23.395Z,11.38
2023-05-21T21:19:50.358Z,11.75
2023-05-21T21:22:18.483Z,11.14
2023-05-21T21:24:45.825Z,10.97
2023-05-21T21:27:12.678Z,10.87
2023-05-21T21:29:39.851Z,10.64
2023-05-21T21:32:07.059Z,10.53
2023-05-21T21:34:34.678Z,10.95
2023-05-21T21:37:01.462Z,11.23
2023-05-21T21:39:28.443Z,10.06
2023-05-21T21:41:55.774Z,10.67
2023-05-21T21:44:22.593Z,10.07
2023-05-21T21:46:49.534Z,9.67
2023-05-21T21:49:19.118Z,9.44
2023-05-21T21:51:46.029Z,10.02
2023-05-21T21:54:12.808Z,9.43
2023-05-21T21:56:41.298Z,10.29
2023-05-21T21:59:08.206Z,9.92
2023-05-21T22:01:36.063Z,10.09
2023-05-21T22:04:03.405Z,9.62
2023-05-21T22:06:31.384Z,10.24
2023-05-21T22:08:58.285Z,10.97
2023-05-21T22:11:27.028Z,10.02
2023-05-21T22:13:53.925Z,9.22
2023-05-21T22:16:24.958Z,9.74
2023-05-21T22:18:54.270Z,9.30
2023-05-21T22:21:21.785Z,9.32
2023-05-21T22:23:48.854Z,9.29
2023-05-21T22:26:15.921Z,9.15
2023-05-21T22:28:42.913Z,10.13
2023-05-21T22:31:09.994Z,9.61
2023-05-21T22:33:37.184Z,9.13
2023-05-21T22:36:04.304Z,9.49
2023-05-21T22:38:31.169Z,8.88
2023-05-21T22:40:58.045Z,9.39
2023-05-21T22:43:26.190Z,9.64
2023-05-21T22:45:53.075Z,9.70
2023-05-21T22:48:22.004Z,10.39
2023-05-21T22:50:50.332Z,10.08
2023-05-21T22:53:17.834Z,10.35
2023-05-21T22:55:44.826Z,9.42
2023-05-21T22:58:11.575Z,9.87
2023-05-21T23:00:38.515Z,9.14
2023-05-21T23:03:05.609Z,8.90
2023-05-21T23:05:32.404Z,7.84
2023-05-21T23:07:59.534Z,7.30
2023-05-21T23:10:26.450Z,7.59
2023-05-21T23:12:54.139Z,7.88
2023-05-21T23:15:21.697Z,8.51
2023-05-21T23:17:48.645Z,8.54
2023-05-21T23:20:15.567Z,7.97
2023-05-21T23:22:42.317Z,6.98
2023-05-21T23:25:09.660Z,7.71
2023-05-21T23:27:36.391Z,7.59
2023-05-21T23:30:03.358Z,7.39
2023-05-21T23:32:30.305Z,7.06
2023-05-21T23:34:57.180Z,8.89
2023-05-21T23:37:24.028Z,8.29
2023-05-21T23:39:51.489Z,6.56
2023-05-21T23:42:18.781Z,7.26
2023-05-21T23:44:45.575Z,7.60
2023-05-21T23:47:12.300Z,6.59
2023-05-21T23:49:39.590Z,7.39
2023-05-21T23:52:07.016Z,8.27
2023-05-21T23:54:33.770Z,7.57
2023-05-21T23:57:01.385Z,8.23
2023-05-21T23:59:28.093Z,8.49
